Líbí se Vám tento web? Budeme velmi rádi, pokud přidáte hodnocení +1

Seznam meteostanic a jejich METAR

Vyhledat místa podle abecedy:
A B C D E F G H I J K L M N O P Q R S T U V W X Y Z

Filtrovat:

ID stanice:
a/nebo
Název místa (fulltext):
 
Místo (ID)Naposledy načteno 
Brno - Tuřany (Brno/Tu) 23.04.2017 23:00 UTC Zobrazit data
Místo: Brno - Tuřany
Teplota: 4 °C (pocitová: 0.6 °C)
Vítr: 1 m/s z(e) 300°
Počasí: skoro zataženo
Dohlednost: 50 km
Zákl. oblačnosti: 6/8 2400 m
Vlhkost: 75%
Červená - Opava (Cervena/uL) 23.04.2017 23:00 UTC Zobrazit data
Místo: Červená - Opava
Teplota: 0 °C (pocitová: -9.2 °C)
Vítr: 5 m/s z(e) 270°
Počasí: skoro zataženo
Dohlednost: 35 km
Zákl. oblačnosti: 7/8 1800 m
Vlhkost: 93%
České Budějovice (C.Budej/po) 23.04.2017 23:00 UTC Zobrazit data
Místo: České Budějovice
Teplota: 0 °C (pocitová: -5.9 °C)
Vítr: 2 m/s z(e) 150°
Počasí:
Dohlednost: 35 km
Zákl. oblačnosti: N/A
Vlhkost: 80%
Cheb (Cheb) 23.04.2017 23:00 UTC Zobrazit data
Místo: Cheb
Teplota: 3 °C (pocitová: -2.1 °C)
Vítr: 2 m/s z(e) 250°
Počasí: skoro zataženo
Dohlednost: 20 km
Zákl. oblačnosti: 5/8 1800 m
Vlhkost: 75%
Chotusice - Čáslav (Caslav) 23.04.2017 23:00 UTC Zobrazit data
Místo: Chotusice - Čáslav
Teplota: 5 °C (pocitová: -2.7 °C)
Vítr: 6 m/s z(e) 290°
Počasí: skoro zataženo
Dohlednost: 10 km
Zákl. oblačnosti: 6/8 2100 m
Vlhkost: 70%
Churáňov (Churanov) 23.04.2017 23:00 UTC Zobrazit data
Místo: Churáňov
Teplota: -3 °C (pocitová: -11.3 °C)
Vítr: 3 m/s z(e) 240°
Počasí:
Dohlednost: 20 km
Zákl. oblačnosti: N/A
Vlhkost: 93%
Doksany - Litoměřice (Doksany) 23.04.2017 23:00 UTC Zobrazit data
Místo: Doksany - Litoměřice
Teplota: 4 °C (pocitová: -2 °C)
Vítr: 3 m/s z(e) 270°
Počasí: skorojasno
Dohlednost: 20 km
Zákl. oblačnosti: 1/8 2400 m
Vlhkost: 75%
Dukovany (Dukovany) 23.04.2017 23:00 UTC Zobrazit data
Místo: Dukovany
Teplota: 1 °C (pocitová: -7 °C)
Vítr: 4 m/s z(e) 270°
Počasí:
Dohlednost: 20 km
Zákl. oblačnosti: N/A
Vlhkost: 81%
Holešov (Holesov) 23.04.2017 23:00 UTC Zobrazit data
Místo: Holešov
Teplota: 3 °C (pocitová: -0.6 °C)
Vítr: 1 m/s z(e) 360°
Počasí: skorojasno
Dohlednost: 20 km
Zákl. oblačnosti: 1/8 2400 m
Vlhkost: 81%
Kadaň - Tušimice (Tusimice) 23.04.2017 23:00 UTC Zobrazit data
Místo: Kadaň - Tušimice
Teplota: 5 °C (pocitová: 0.5 °C)
Vítr: 2 m/s z(e) 300°
Počasí: zataženo
Dohlednost: 35 km
Zákl. oblačnosti: 8/8 1500 m
Vlhkost: 70%
Karlovy Vary (K.Vary) 23.04.2017 23:00 UTC Zobrazit data
Místo: Karlovy Vary
Teplota: 3 °C (pocitová: -3.3 °C)
Vítr: 3 m/s z(e) 260°
Počasí: zataženo
Dohlednost: 40 km
Zákl. oblačnosti: 7/8 1800 m
Vlhkost: 75%
Kocelovice (Kocelovice) 23.04.2017 23:00 UTC Zobrazit data
Místo: Kocelovice
Teplota: 3 °C (pocitová: -3.3 °C)
Vítr: 3 m/s z(e) 300°
Počasí: zataženo
Dohlednost: 20 km
Zákl. oblačnosti: 8/8 1500 m
Vlhkost: 70%
Kopisty (Kopisty) 23.04.2017 21:00 UTC Zobrazit data
Místo: Kopisty
Teplota: 5 °C (pocitová: -0.7 °C)
Vítr: 3 m/s z(e) 280°
Počasí: skoro zataženo
Dohlednost: 20 km
Zákl. oblačnosti: 1/8 900 m;5/8 2400 m
Vlhkost: 70%
Kostelní Myslová (K.Myslova) 23.04.2017 23:00 UTC Zobrazit data
Místo: Kostelní Myslová
Teplota: 1 °C (pocitová: -4.6 °C)
Vítr: 2 m/s z(e) 290°
Počasí: oblačno
Dohlednost: 20 km
Zákl. oblačnosti: 3/8 1800 m
Vlhkost: 81%
Křešín - Kramolín (Kramolin) 23.04.2017 23:00 UTC Zobrazit data
Místo: Křešín - Kramolín
Teplota: N/A °C (pocitová: N/A °C)
Vítr: N/A m/s z(e) N/A°
Počasí:
Dohlednost: N/A
Zákl. oblačnosti: N/A
Vlhkost: N/A%
Kuchařovice - Znojmo (Kucharovic) 23.04.2017 23:00 UTC Zobrazit data
Místo: Kuchařovice - Znojmo
Teplota: 3 °C (pocitová: -2.1 °C)
Vítr: 2 m/s z(e) 320°
Počasí:
Dohlednost: 20 km
Zákl. oblačnosti: N/A
Vlhkost: 75%
Liberec (Liberec) 23.04.2017 23:00 UTC Zobrazit data
Místo: Liberec
Teplota: 3 °C (pocitová: -4.3 °C)
Vítr: 4 m/s z(e) 300°
Počasí: zataženo
Dohlednost: 20 km
Zákl. oblačnosti: 7/8 1230 m;8/8 1800 m
Vlhkost: 81%
Luká (Luka) 23.04.2017 23:00 UTC Zobrazit data
Místo: Luká
Teplota: 3 °C (pocitová: -5.5 °C)
Vítr: 6 m/s z(e) 290°
Počasí: zataženo
Dohlednost: 20 km
Zákl. oblačnosti: 1/8 1500 m;7/8 2100 m
Vlhkost: 70%
Lysá Hora (Lysa Hora) 23.04.2017 14:00 UTC Zobrazit data
Místo: Lysá Hora
Teplota: -1 °C (pocitová: -11.2 °C)
Vítr: 6 m/s z(e) 310°
Počasí: skoro zataženo
Dohlednost: 18 km
Zákl. oblačnosti: 4/8 90 m
Vlhkost: 93%
Milešovka (Milesovka) 23.04.2017 23:00 UTC Zobrazit data
Místo: Milešovka
Teplota: 0 °C (pocitová: -11.9 °C)
Vítr: 11 m/s z(e) 300°
Počasí: skoro zataženo
Dohlednost: 55 km
Zákl. oblačnosti: 3/8 600 m
Vlhkost: 93%
Mošnov (Ostrava/Mo) 23.04.2017 23:00 UTC Zobrazit data
Místo: Mošnov
Teplota: 3 °C (pocitová: -3.3 °C)
Vítr: 3 m/s z(e) 230°
Počasí: zataženo
Dohlednost: 30 km
Zákl. oblačnosti: 4/8 1500 m;7/8 2700 m
Vlhkost: 81%
Náměšť nad Oslavou (Namest n/O) 23.04.2017 23:00 UTC Zobrazit data
Místo: Náměšť nad Oslavou
Teplota: 1 °C (pocitová: -6 °C)
Vítr: 3 m/s z(e) 250°
Počasí: oblačno
Dohlednost: 20 km
Zákl. oblačnosti: 3/8 1500 m
Vlhkost: 81%
Pardubice (Pardubice) 23.04.2017 23:00 UTC Zobrazit data
Místo: Pardubice
Teplota: 4 °C (pocitová: -0.8 °C)
Vítr: 2 m/s z(e) 240°
Počasí: skoro zataženo
Dohlednost: 20 km
Zákl. oblačnosti: 4/8 1500 m;7/8 2400 m
Vlhkost: 75%
Pec pod Sněžkou (Pec p.Snez) 23.04.2017 23:00 UTC Zobrazit data
Místo: Pec pod Sněžkou
Teplota: 0 °C (pocitová: -7.3 °C)
Vítr: 3 m/s z(e) 190°
Počasí: sněží
Dohlednost: 20 km
Zákl. oblačnosti: 1/8 780 m;8/8 1500 m
Vlhkost: 87%
Plzeň město - Mikulka (Plzen/Miku) 23.04.2017 23:00 UTC Zobrazit data
Místo: Plzeň město - Mikulka
Teplota: 5 °C (pocitová: -0.7 °C)
Vítr: 3 m/s z(e) 280°
Počasí: zataženo
Dohlednost: 35 km
Zákl. oblačnosti: 8/8 1500 m
Vlhkost: 66%
Polom (Polom) 23.04.2017 23:00 UTC Zobrazit data
Místo: Polom
Teplota: 0 °C (pocitová: -4.3 °C)
Vítr: 1 m/s z(e) 260°
Počasí: sněží
Dohlednost: 15 km
Zákl. oblačnosti: 5/8 690 m
Vlhkost: 100%
Praha - Karlov (Praha/Kar) 23.04.2017 23:00 UTC Zobrazit data
Místo: Praha - Karlov
Teplota: 6 °C (pocitová: -0.2 °C)
Vítr: 4 m/s z(e) 260°
Počasí: skoro zataženo
Dohlednost: 20 km
Zákl. oblačnosti: 5/8 2400 m
Vlhkost: 61%
Praha - Kbely (Praha/Kbe) 23.04.2017 23:00 UTC Zobrazit data
Místo: Praha - Kbely
Teplota: 5 °C (pocitová: -1.5 °C)
Vítr: 4 m/s z(e) 270°
Počasí: skoro zataženo
Dohlednost: 25 km
Zákl. oblačnosti: 5/8 2100 m
Vlhkost: 70%
Praha - Libuš (Praha/Lib) 23.04.2017 23:00 UTC Zobrazit data
Místo: Praha - Libuš
Teplota: 5 °C (pocitová: -0.7 °C)
Vítr: 3 m/s z(e) 280°
Počasí: zataženo
Dohlednost: 35 km
Zákl. oblačnosti: 8/8 2100 m
Vlhkost: 66%
Praha - Ruzyně (Praha/Ru) 23.04.2017 23:00 UTC Zobrazit data
Místo: Praha - Ruzyně
Teplota: 3 °C (pocitová: -3.3 °C)
Vítr: 3 m/s z(e) 270°
Počasí: skoro zataženo
Dohlednost: 40 km
Zákl. oblačnosti: 6/8 2100 m
Vlhkost: 75%
Přibyslav (Pribyslav) 23.04.2017 23:00 UTC Zobrazit data
Místo: Přibyslav
Teplota: 2 °C (pocitová: -4.7 °C)
Vítr: 3 m/s z(e) 290°
Počasí: zataženo
Dohlednost: 20 km
Zákl. oblačnosti: 3/8 1410 m;8/8 2100 m
Vlhkost: 87%
Přimda (Primda) 23.04.2017 23:00 UTC Zobrazit data
Místo: Přimda
Teplota: 1 °C (pocitová: -6 °C)
Vítr: 3 m/s z(e) 270°
Počasí: zataženo
Dohlednost: 20 km
Zákl. oblačnosti: 8/8 1440 m
Vlhkost: 87%
Šerák (Serak) 23.04.2017 23:00 UTC Zobrazit data
Místo: Šerák
Teplota: -4 °C (pocitová: -15.4 °C)
Vítr: 6 m/s z(e) 310°
Počasí: sněží
Dohlednost: 4300 m
Zákl. oblačnosti: 3/8 30 m;5/8 90 m
Vlhkost: 100%
Svratouch (Svratouch) 23.04.2017 23:00 UTC Zobrazit data
Místo: Svratouch
Teplota: 1 °C (pocitová: -7 °C)
Vítr: 4 m/s z(e) 290°
Počasí: zataženo
Dohlednost: 35 km
Zákl. oblačnosti: 8/8 870 m
Vlhkost: 87%
Temelín (Temelin) 23.04.2017 23:00 UTC Zobrazit data
Místo: Temelín
Teplota: 2 °C (pocitová: -4.7 °C)
Vítr: 3 m/s z(e) 260°
Počasí: skoro zataženo
Dohlednost: 20 km
Zákl. oblačnosti: 7/8 1800 m
Vlhkost: 70%
Ústí nad Labem - Kočkov (Usti n/L) 23.04.2017 23:00 UTC Zobrazit data
Místo: Ústí nad Labem - Kočkov
Teplota: 3 °C (pocitová: -3.3 °C)
Vítr: 3 m/s z(e) 310°
Počasí: skorojasno
Dohlednost: 35 km
Zákl. oblačnosti: 2/8 1800 m
Vlhkost: 75%
Ústí nad Orlicí (Usti n/O) 23.04.2017 23:00 UTC Zobrazit data
Místo: Ústí nad Orlicí
Teplota: 3 °C (pocitová: -0.6 °C)
Vítr: 1 m/s z(e) 330°
Počasí: skoro zataženo
Dohlednost: 20 km
Zákl. oblačnosti: 1/8 960 m;5/8 1200 m
Vlhkost: 81%
Aalborg (EKYT) 23.04.2017 14:50 UTC Zobrazit METAR
EKYT 231450Z 29015KT 9999 FEW034 BKN200 09/00 Q1014
Aarhus (EKAH) 21.04.2017 14:50 UTC Zobrazit METAR
EKAH 211450Z 28019KT 9999 -RA SCT015 OVC050 08/05 Q1014
Abu Dhabi (OMAA) 23.04.2017 23:00 UTC Zobrazit METAR
OMAA 232300Z 18003KT 140V220 7000 NSC 25/23 Q1006 BECMG 3000 HZ
Abuja (DNAA) 23.04.2017 22:00 UTC Zobrazit METAR
DNAA 232200Z 12003KT 080V180 9999 FEW010 29/17 Q1013 NOSIG
Accra (DGAA) 23.04.2017 23:00 UTC Zobrazit METAR
DGAA 232300Z 12002KT CAVOK 28/25 Q1013 NOSIG
Addis Abeba (HAAB) 23.04.2017 21:00 UTC Zobrazit METAR
HAAB 232100Z 31004KT 9999 FEW025 16/M01 Q1026
Agana (PGUM) 23.04.2017 22:54 UTC Zobrazit METAR
PGUM 232254Z 14006KT 10SM -RA FEW016 SCT022 BKN046 27/26 A2994 RMK AO2 RAB48 SLP131 P0000 T02720261 $
Ahe Island (NTHE) Zatím nenačteno  
Akureyri (BIAR) 23.04.2017 23:00 UTC Zobrazit METAR
BIAR 232300Z 33013G23KT 9999 -SHSN BKN039 BKN045 M04/M10 Q1033 R01/090095
Almaty (UAAA) Zatím nenačteno  
Amman (OJAM) 23.04.2017 23:00 UTC Zobrazit METAR
OJAM 232300Z 28015KT 6000 FEW030 09/04 Q1017 NOSIG
Amsterdam (EHAM) 23.04.2017 22:55 UTC Zobrazit METAR
EHAM 232255Z 18007KT CAVOK 06/03 Q1022 NOSIG
Antananarivo (FMMI) 23.04.2017 23:00 UTC Zobrazit METAR
FMMI 232300Z 00000KT 9999 FEW017 SCT020 16/15 Q1019 NOSIG
1 2 3 ... 9 Další
Reklama

Počasí na Váš email

Emaily jsou bez reklamy a bez spamu



Odhlásit newsletter

Reklama


Lunární kalendář

  • 26.04.
  • 03.05.
  • 10.05.
  • 19.05.



Jsme na Google Plus

Reklama
Povinné ručení



Může Vás také zajímat:


Reklama